X  Schließen METAR Luftfahrt Wetterdaten        EDDR Saarbrücken
Temperatur
14°C Temperatur
10°C Taupunkt
77% Feuchtigkeit



Wind
11 km/h
7 MPS
3 M/S
6 KTS



320°
NW
Aktuelle Wetterlage

Mostly Clear Größtenteils klar
Luftdruck 1022 (hPa) - 30.18 (inHg)
Sichtweite 30 (Meile) - 48 (Km)
Flughafen
Flughafen Code EDDR

Position : Saarbrücken
Entfernung: 8 (Km)

Metar:
METAR EDDR 272120Z AUTO 32006KT 280V360 9999 FEW029 14/10 Q1022

Zeit: 27-05-2022 23:20 CEST